createdAt,value
2024-02-02T00:00:46.546Z,50.39
2024-02-02T00:01:46.499Z,52.20
2024-02-02T00:02:46.581Z,50.24
2024-02-02T00:03:46.543Z,51.04
2024-02-02T00:04:46.487Z,53.71
2024-02-02T00:05:46.517Z,52.38
2024-02-02T00:06:46.558Z,53.37
2024-02-02T00:07:46.504Z,51.80
2024-02-02T00:08:46.522Z,50.79
2024-02-02T00:09:46.511Z,53.73
2024-02-02T00:10:46.499Z,52.99
2024-02-02T00:11:46.595Z,51.38
2024-02-02T00:12:46.507Z,50.00
2024-02-02T00:13:46.509Z,53.11
2024-02-02T00:14:46.556Z,51.86
2024-02-02T00:15:46.510Z,51.42
2024-02-02T00:16:46.511Z,53.54
2024-02-02T00:17:46.540Z,54.82
2024-02-02T00:18:46.661Z,52.03
2024-02-02T00:19:46.565Z,53.11
2024-02-02T00:20:46.578Z,51.67
2024-02-02T00:21:46.513Z,51.32
2024-02-02T00:22:46.526Z,54.25
2024-02-02T00:23:46.571Z,54.07
2024-02-02T00:24:46.531Z,51.44
2024-02-02T00:25:46.525Z,54.18
2024-02-02T00:26:46.584Z,53.00
2024-02-02T00:27:46.534Z,51.79
2024-02-02T00:28:46.516Z,52.17
2024-02-02T00:29:46.585Z,51.27
2024-02-02T00:30:46.532Z,51.38
2024-02-02T00:31:46.556Z,52.41
2024-02-02T00:32:46.731Z,53.79
2024-02-02T00:33:46.601Z,53.22
2024-02-02T00:34:46.754Z,53.69
2024-02-02T00:35:46.609Z,53.02
2024-02-02T00:36:46.557Z,55.33
2024-02-02T00:37:46.543Z,52.01
2024-02-02T00:38:46.671Z,52.65
2024-02-02T00:39:46.551Z,54.36
2024-02-02T00:40:46.556Z,52.64
2024-02-02T00:41:46.552Z,54.02
2024-02-02T00:42:46.578Z,53.74
2024-02-02T00:43:46.566Z,52.07
2024-02-02T00:44:46.566Z,51.65
2024-02-02T00:45:46.568Z,52.25
2024-02-02T00:46:46.557Z,51.73
2024-02-02T00:47:46.649Z,55.65
2024-02-02T00:48:46.604Z,52.79
2024-02-02T00:49:46.840Z,52.15
2024-02-02T00:50:46.569Z,53.42
2024-02-02T00:51:46.557Z,52.21
2024-02-02T00:52:46.618Z,53.61
2024-02-02T00:53:46.588Z,51.22
2024-02-02T00:54:46.566Z,53.46
2024-02-02T00:55:46.565Z,53.54
2024-02-02T00:56:46.631Z,52.03
2024-02-02T00:57:46.594Z,53.81
2024-02-02T00:58:46.577Z,50.69
2024-02-02T00:59:46.576Z,52.09
2024-02-02T01:00:46.641Z,52.55
2024-02-02T01:01:46.583Z,51.55
2024-02-02T01:02:46.609Z,53.74
2024-02-02T01:03:46.688Z,52.52
2024-02-02T01:04:46.693Z,52.44
2024-02-02T01:05:46.641Z,52.96
2024-02-02T01:06:46.696Z,51.82
2024-02-02T01:07:46.593Z,53.03
2024-02-02T01:08:46.613Z,51.79
2024-02-02T01:09:46.611Z,50.35
2024-02-02T01:10:46.574Z,51.83
2024-02-02T01:11:46.580Z,52.44
2024-02-02T01:12:46.596Z,50.57
2024-02-02T01:13:46.579Z,53.69
2024-02-02T01:14:46.580Z,53.59
2024-02-02T01:15:46.583Z,51.93
2024-02-02T01:16:46.584Z,53.02
2024-02-02T01:17:46.712Z,52.14
2024-02-02T01:18:46.692Z,53.23
2024-02-02T01:19:46.637Z,52.00
2024-02-02T01:20:46.587Z,52.33
2024-02-02T01:21:46.597Z,54.37
2024-02-02T01:22:46.598Z,53.10
2024-02-02T01:23:46.593Z,51.95
2024-02-02T01:24:46.594Z,54.23
2024-02-02T01:25:46.610Z,51.32
2024-02-02T01:26:46.611Z,51.77
2024-02-02T01:27:46.672Z,50.00
2024-02-02T01:28:46.608Z,50.30
2024-02-02T01:29:46.615Z,51.86
2024-02-02T01:30:46.609Z,51.53
2024-02-02T01:31:46.616Z,51.66
2024-02-02T01:32:46.625Z,54.54
2024-02-02T01:33:46.765Z,54.77
2024-02-02T01:34:46.706Z,53.39
2024-02-02T01:35:46.606Z,54.19
2024-02-02T01:36:46.612Z,52.94
2024-02-02T01:37:46.629Z,54.35
2024-02-02T01:38:46.617Z,54.73
2024-02-02T01:39:46.612Z,52.98
2024-02-02T01:40:46.616Z,51.71
2024-02-02T01:41:46.614Z,53.05
2024-02-02T01:42:47.072Z,54.41
2024-02-02T01:43:46.626Z,53.85
2024-02-02T01:44:46.616Z,54.77
2024-02-02T01:45:46.626Z,55.85
2024-02-02T01:46:46.631Z,55.79
2024-02-02T01:47:46.687Z,54.22
2024-02-02T01:48:46.678Z,54.98
2024-02-02T01:49:46.789Z,54.55
2024-02-02T01:50:46.637Z,53.34
2024-02-02T01:51:46.614Z,53.10
2024-02-02T01:52:46.629Z,52.63
2024-02-02T01:53:46.631Z,53.49
2024-02-02T01:54:46.620Z,53.87
2024-02-02T01:55:46.637Z,51.89
2024-02-02T01:56:46.630Z,52.57
2024-02-02T01:57:46.623Z,50.24
2024-02-02T01:58:46.621Z,53.77
2024-02-02T01:59:46.634Z,52.87
2024-02-02T02:00:46.803Z,52.63
2024-02-02T02:01:46.649Z,53.37
2024-02-02T02:02:46.654Z,53.96
2024-02-02T02:03:46.879Z,53.58
2024-02-02T02:04:46.637Z,53.78
2024-02-02T02:05:46.699Z,52.83
2024-02-02T02:06:46.682Z,53.10
2024-02-02T02:07:46.643Z,53.21
2024-02-02T02:08:46.647Z,52.11
2024-02-02T02:09:46.663Z,54.76
2024-02-02T02:10:46.662Z,52.24
2024-02-02T02:11:46.677Z,51.56
2024-02-02T02:12:46.706Z,51.35
2024-02-02T02:13:46.731Z,52.27
2024-02-02T02:14:46.741Z,51.85
2024-02-02T02:15:46.750Z,53.95
2024-02-02T02:16:46.843Z,52.18
2024-02-02T02:17:46.848Z,51.42
2024-02-02T02:18:53.063Z,53.24
2024-02-02T02:19:47.904Z,53.03
2024-02-02T02:20:46.816Z,53.25
2024-02-02T02:21:46.824Z,53.64
2024-02-02T02:22:46.819Z,52.41
2024-02-02T02:23:46.818Z,51.71
2024-02-02T02:24:46.823Z,51.88
2024-02-02T02:25:46.826Z,51.16
2024-02-02T02:26:46.827Z,51.41
2024-02-02T02:27:46.846Z,53.50
2024-02-02T02:28:46.836Z,53.62
2024-02-02T02:29:46.836Z,52.92
2024-02-02T02:30:46.855Z,53.65
2024-02-02T02:31:46.874Z,54.25
2024-02-02T02:32:46.919Z,52.83
2024-02-02T02:33:47.037Z,51.04
2024-02-02T02:34:46.899Z,54.75
2024-02-02T02:35:46.873Z,51.99
2024-02-02T02:36:46.844Z,51.54
2024-02-02T02:37:46.842Z,53.19
2024-02-02T02:38:46.846Z,53.49
2024-02-02T02:39:46.846Z,53.70
2024-02-02T02:40:46.851Z,50.34
2024-02-02T02:41:46.844Z,53.89
2024-02-02T02:42:46.857Z,53.18
2024-02-02T02:43:46.879Z,52.41
2024-02-02T02:44:46.849Z,50.00
2024-02-02T02:45:46.859Z,51.80
2024-02-02T02:46:46.853Z,52.32
2024-02-02T02:47:46.944Z,51.02
2024-02-02T02:48:46.953Z,52.26
2024-02-02T02:49:46.941Z,54.42
2024-02-02T02:50:46.904Z,54.41
2024-02-02T02:51:46.913Z,53.66
2024-02-02T02:52:46.939Z,53.05
2024-02-02T02:53:46.954Z,54.22
2024-02-02T02:54:46.975Z,52.40
2024-02-02T02:55:47.003Z,54.50
2024-02-02T02:56:47.001Z,53.61
2024-02-02T02:57:47.027Z,51.01
2024-02-02T02:58:47.035Z,53.31
2024-02-02T02:59:47.053Z,55.29
2024-02-02T03:00:47.073Z,50.83
2024-02-02T03:01:47.093Z,54.73
2024-02-02T03:02:47.098Z,52.63
2024-02-02T03:03:47.218Z,54.85
2024-02-02T03:04:47.147Z,55.29
2024-02-02T03:05:47.145Z,55.84
2024-02-02T03:06:47.264Z,55.30
2024-02-02T03:07:47.184Z,56.31
2024-02-02T03:08:47.242Z,55.04
2024-02-02T03:09:47.223Z,52.56
2024-02-02T03:10:47.227Z,54.32
2024-02-02T03:11:47.252Z,53.21
2024-02-02T03:12:47.259Z,53.52
2024-02-02T03:13:47.270Z,51.52
2024-02-02T03:14:47.311Z,54.26
2024-02-02T03:15:47.315Z,52.79
2024-02-02T03:16:47.344Z,55.48
2024-02-02T03:17:47.402Z,53.30
2024-02-02T03:18:47.509Z,53.32
2024-02-02T03:19:47.477Z,52.03
2024-02-02T03:20:47.395Z,54.33
2024-02-02T03:21:47.434Z,54.09
2024-02-02T03:22:47.436Z,54.32
2024-02-02T03:23:47.441Z,53.30
2024-02-02T03:24:47.461Z,55.14
2024-02-02T03:25:47.490Z,53.83
2024-02-02T03:26:47.492Z,53.12
2024-02-02T03:27:47.508Z,55.30
2024-02-02T03:28:47.531Z,51.98
2024-02-02T03:29:47.645Z,52.43
2024-02-02T03:30:47.607Z,54.25
2024-02-02T03:31:47.631Z,52.26
2024-02-02T03:32:47.743Z,54.19
2024-02-02T03:33:47.776Z,51.89
2024-02-02T03:34:47.724Z,51.65
2024-02-02T03:35:47.683Z,50.76
2024-02-02T03:36:47.683Z,53.93
2024-02-02T03:37:47.735Z,53.00
2024-02-02T03:38:47.723Z,52.37
2024-02-02T03:39:47.744Z,51.92
2024-02-02T03:40:47.761Z,52.88
2024-02-02T03:41:47.781Z,51.90
2024-02-02T03:42:47.812Z,51.80
2024-02-02T03:43:47.845Z,53.40
2024-02-02T03:44:47.840Z,50.77
2024-02-02T03:45:47.859Z,51.90
2024-02-02T03:46:47.862Z,55.83
2024-02-02T03:47:47.897Z,53.75
2024-02-02T03:48:47.982Z,53.06
2024-02-02T03:49:47.957Z,54.40
2024-02-02T03:50:47.958Z,53.23
2024-02-02T03:51:47.947Z,52.09
2024-02-02T03:52:47.973Z,54.60
2024-02-02T03:53:47.987Z,52.90
2024-02-02T03:54:48.020Z,51.27
2024-02-02T03:55:48.048Z,54.26
2024-02-02T03:56:48.037Z,53.83
2024-02-02T03:57:48.092Z,52.74
2024-02-02T03:58:48.088Z,54.92
2024-02-02T03:59:48.121Z,52.65
2024-02-02T04:00:48.244Z,51.78
2024-02-02T04:01:48.217Z,51.11
2024-02-02T04:02:48.203Z,53.43
2024-02-02T04:03:48.264Z,54.48
2024-02-02T04:04:48.216Z,53.97
2024-02-02T04:05:48.315Z,54.26
2024-02-02T04:06:48.286Z,53.20
2024-02-02T04:07:48.295Z,51.73
2024-02-02T04:08:48.323Z,52.73
2024-02-02T04:09:48.322Z,51.16
2024-02-02T04:10:48.346Z,54.73
2024-02-02T04:11:48.362Z,52.38
2024-02-02T04:12:48.400Z,54.88
2024-02-02T04:13:48.411Z,55.57
2024-02-02T04:14:48.436Z,50.44
2024-02-02T04:15:48.495Z,52.83
2024-02-02T04:16:48.474Z,54.58
2024-02-02T04:17:48.535Z,50.68
2024-02-02T04:18:48.647Z,52.85
2024-02-02T04:19:48.633Z,52.62
2024-02-02T04:20:48.594Z,52.33
2024-02-02T04:21:48.568Z,52.61
2024-02-02T04:22:48.580Z,54.69
2024-02-02T04:23:48.612Z,55.55
2024-02-02T04:24:48.620Z,54.21
2024-02-02T04:25:48.643Z,51.59
2024-02-02T04:26:48.690Z,51.60
2024-02-02T04:27:48.677Z,54.63
2024-02-02T04:28:55.868Z,50.00
2024-02-02T04:29:55.904Z,50.00
2024-02-02T04:30:55.855Z,50.00
2024-02-02T04:32:03.041Z,50.00
2024-02-02T04:33:03.103Z,50.00
2024-02-02T04:34:03.171Z,50.00
2024-02-02T04:35:03.048Z,50.00
2024-02-02T04:36:03.068Z,50.00
2024-02-02T04:37:03.044Z,51.03
2024-02-02T04:38:03.069Z,51.01
2024-02-02T04:39:03.086Z,52.60
2024-02-02T04:40:03.046Z,50.00
2024-02-02T04:41:03.042Z,51.42
2024-02-02T04:42:03.100Z,50.35
2024-02-02T04:43:03.065Z,51.17
2024-02-02T04:44:03.042Z,51.95
2024-02-02T04:45:03.068Z,51.31
2024-02-02T04:46:03.051Z,51.38
2024-02-02T04:47:03.074Z,51.68
2024-02-02T04:48:03.156Z,52.92
2024-02-02T04:49:03.362Z,51.34
2024-02-02T04:50:03.059Z,51.25
2024-02-02T04:51:03.101Z,53.45
2024-02-02T04:52:03.059Z,51.24
2024-02-02T04:53:03.063Z,52.68
2024-02-02T04:54:03.111Z,51.46
2024-02-02T04:55:03.113Z,50.00
2024-02-02T04:56:03.068Z,51.19
2024-02-02T04:57:03.091Z,52.71
2024-02-02T04:58:03.079Z,52.40
2024-02-02T04:59:03.070Z,52.64
2024-02-02T05:00:03.210Z,50.64
2024-02-02T05:01:03.067Z,53.67
2024-02-02T05:02:05.924Z,51.75
2024-02-02T05:03:03.090Z,51.83
2024-02-02T05:04:03.695Z,52.07
2024-02-02T05:05:03.229Z,53.22
2024-02-02T05:06:03.098Z,52.58
2024-02-02T05:07:03.078Z,52.33
2024-02-02T05:08:03.105Z,53.44
2024-02-02T05:09:03.111Z,51.73
2024-02-02T05:10:03.100Z,54.39
2024-02-02T05:11:03.091Z,54.08
2024-02-02T05:12:03.089Z,54.02
2024-02-02T05:13:03.108Z,54.85
2024-02-02T05:14:03.149Z,51.88
2024-02-02T05:15:03.143Z,55.60
2024-02-02T05:16:03.082Z,54.02
2024-02-02T05:17:03.091Z,53.72
2024-02-02T05:18:03.193Z,51.99
2024-02-02T05:19:03.153Z,53.44
2024-02-02T05:20:03.098Z,54.23
2024-02-02T05:21:03.144Z,53.06
2024-02-02T05:22:03.097Z,50.75
2024-02-02T05:23:03.104Z,52.50
2024-02-02T05:24:13.485Z,50.25
2024-02-02T05:25:04.115Z,50.47
2024-02-02T05:26:03.127Z,50.69
2024-02-02T05:27:03.152Z,51.18
2024-02-02T05:28:03.108Z,51.91
2024-02-02T05:29:03.098Z,52.03
2024-02-02T05:30:03.158Z,50.01
2024-02-02T05:31:03.122Z,52.62
2024-02-02T05:32:03.099Z,54.17
2024-02-02T05:33:03.180Z,53.67
2024-02-02T05:34:03.216Z,50.58
2024-02-02T05:35:03.395Z,51.69
2024-02-02T05:36:03.212Z,52.92
2024-02-02T05:37:03.258Z,53.11
2024-02-02T05:38:03.349Z,51.69
2024-02-02T05:39:03.419Z,51.82
2024-02-02T05:40:03.432Z,54.30
2024-02-02T05:41:03.495Z,52.94
2024-02-02T05:42:03.677Z,51.32
2024-02-02T05:43:03.616Z,53.24
2024-02-02T05:44:03.661Z,51.52
2024-02-02T05:45:03.757Z,53.78
2024-02-02T05:46:03.805Z,54.06
2024-02-02T05:47:03.862Z,51.58
2024-02-02T05:48:04.062Z,53.49
2024-02-02T05:49:04.031Z,51.65
2024-02-02T05:50:04.144Z,52.48
2024-02-02T05:51:04.285Z,54.85
2024-02-02T05:52:04.301Z,51.26
2024-02-02T05:53:04.307Z,52.02
2024-02-02T05:54:04.409Z,55.05
2024-02-02T05:55:04.468Z,52.57
2024-02-02T05:56:04.517Z,54.07
2024-02-02T05:57:04.593Z,55.58
2024-02-02T05:58:04.652Z,50.68
2024-02-02T05:59:04.720Z,52.54
2024-02-02T06:00:04.918Z,52.38
2024-02-02T06:01:04.892Z,51.74
2024-02-02T06:02:04.932Z,53.21
2024-02-02T06:03:05.089Z,54.38
2024-02-02T06:04:05.168Z,51.83
2024-02-02T06:05:05.136Z,52.27
2024-02-02T06:06:05.290Z,54.66
2024-02-02T06:07:05.364Z,51.67
2024-02-02T06:08:05.349Z,51.92
2024-02-02T06:09:05.558Z,54.98
2024-02-02T06:10:05.488Z,51.84
2024-02-02T06:11:05.549Z,53.95
2024-02-02T06:12:05.711Z,54.05
2024-02-02T06:13:05.686Z,52.98
2024-02-02T06:14:05.780Z,51.47
2024-02-02T06:15:05.842Z,50.51
2024-02-02T06:16:05.877Z,53.31
2024-02-02T06:17:05.919Z,52.82
2024-02-02T06:18:06.063Z,51.50
2024-02-02T06:19:06.125Z,52.65
2024-02-02T06:20:06.144Z,54.23
2024-02-02T06:21:06.179Z,56.38
2024-02-02T06:22:06.209Z,54.59
2024-02-02T06:23:07.197Z,56.53
2024-02-02T06:24:06.365Z,53.81
2024-02-02T06:25:06.474Z,52.58
2024-02-02T06:26:06.429Z,55.13
2024-02-02T06:27:06.564Z,54.05
2024-02-02T06:28:06.572Z,51.83
2024-02-02T06:29:06.577Z,52.44
2024-02-02T06:30:06.709Z,51.71
2024-02-02T06:31:06.799Z,54.83
2024-02-02T06:32:06.749Z,54.34
2024-02-02T06:33:06.881Z,55.18
2024-02-02T06:34:06.958Z,57.48
2024-02-02T06:35:06.993Z,56.36
2024-02-02T06:36:06.995Z,55.40
2024-02-02T06:37:07.002Z,55.44
2024-02-02T06:38:07.115Z,55.69
2024-02-02T06:39:07.193Z,54.70
2024-02-02T06:40:07.144Z,55.15
2024-02-02T06:41:07.172Z,58.63
2024-02-02T06:42:07.234Z,62.55
2024-02-02T06:43:07.243Z,64.03
2024-02-02T06:44:07.279Z,74.70
2024-02-02T06:45:07.385Z,79.19
2024-02-02T06:46:07.325Z,81.93
2024-02-02T06:47:07.357Z,81.52
2024-02-02T06:48:07.420Z,83.51
2024-02-02T06:49:07.415Z,89.92
2024-02-02T06:50:07.422Z,92.03
2024-02-02T06:51:07.509Z,94.32
2024-02-02T06:52:07.455Z,99.84
2024-02-02T06:53:07.747Z,105.09
2024-02-02T06:54:07.576Z,111.38
2024-02-02T06:55:07.640Z,114.95
2024-02-02T06:56:07.746Z,119.13
2024-02-02T06:57:08.700Z,125.56
2024-02-02T06:58:07.824Z,129.62
2024-02-02T06:59:07.884Z,131.06
2024-02-02T07:00:07.995Z,135.39
2024-02-02T07:01:08.080Z,140.21
2024-02-02T07:02:08.031Z,144.03
2024-02-02T07:03:08.188Z,151.49
2024-02-02T07:04:08.294Z,153.79
2024-02-02T07:05:08.189Z,158.27
2024-02-02T07:06:08.339Z,159.76
2024-02-02T07:07:08.315Z,162.80
2024-02-02T07:08:08.297Z,168.09
2024-02-02T07:09:08.415Z,170.44
2024-02-02T07:10:08.376Z,172.28
2024-02-02T07:11:08.397Z,177.74
2024-02-02T07:12:08.441Z,177.99
2024-02-02T07:13:08.470Z,183.29
2024-02-02T07:14:08.485Z,186.30
2024-02-02T07:15:08.525Z,188.46
2024-02-02T07:16:08.535Z,190.46
2024-02-02T07:17:08.555Z,193.59
2024-02-02T07:18:08.636Z,194.45
2024-02-02T07:19:08.654Z,196.89
2024-02-02T07:20:08.661Z,199.22
2024-02-02T07:21:08.840Z,198.85
2024-02-02T07:22:08.627Z,198.89
2024-02-02T07:23:08.634Z,197.59
2024-02-02T07:24:08.708Z,198.55
2024-02-02T07:25:08.657Z,199.70
2024-02-02T07:26:08.687Z,200.00
2024-02-02T07:27:08.687Z,200.00
2024-02-02T07:28:08.729Z,198.84
2024-02-02T07:29:08.717Z,198.62
2024-02-02T07:30:08.739Z,199.39
2024-02-02T07:31:08.783Z,198.03
2024-02-02T07:32:08.821Z,198.81
2024-02-02T07:33:08.947Z,198.89
2024-02-02T07:34:09.103Z,199.34
2024-02-02T07:35:08.996Z,200.00
2024-02-02T07:36:09.120Z,199.96
2024-02-02T07:37:09.053Z,199.31
2024-02-02T07:38:09.125Z,199.73
2024-02-02T07:39:09.134Z,199.26
2024-02-02T07:40:09.170Z,199.27
2024-02-02T07:41:09.178Z,198.72
2024-02-02T07:42:09.235Z,200.00
2024-02-02T07:43:09.264Z,199.24
2024-02-02T07:44:09.223Z,199.30
2024-02-02T07:45:09.263Z,199.59
2024-02-02T07:46:11.482Z,198.77
2024-02-02T07:47:09.282Z,198.87
2024-02-02T07:48:09.383Z,199.39
2024-02-02T07:49:09.420Z,200.52
2024-02-02T07:50:09.297Z,202.42
2024-02-02T07:51:09.338Z,202.95
2024-02-02T07:52:09.305Z,198.59
2024-02-02T07:53:09.727Z,197.71
2024-02-02T07:54:09.316Z,194.57
2024-02-02T07:55:09.307Z,191.54
2024-02-02T07:56:09.332Z,188.24
2024-02-02T07:57:09.309Z,186.42
2024-02-02T07:58:09.302Z,182.36
2024-02-02T07:59:09.332Z,179.81
2024-02-02T08:00:09.354Z,178.25
2024-02-02T08:01:09.328Z,175.50
2024-02-02T08:02:09.302Z,174.59
2024-02-02T08:03:12.122Z,174.34
2024-02-02T08:04:09.356Z,174.40
2024-02-02T08:05:09.470Z,174.50
2024-02-02T08:06:09.391Z,173.68
2024-02-02T08:07:09.444Z,174.68
2024-02-02T08:08:09.757Z,175.50
2024-02-02T08:09:09.348Z,175.59
2024-02-02T08:10:09.361Z,175.16
2024-02-02T08:11:09.333Z,176.52
2024-02-02T08:12:09.339Z,177.95
2024-02-02T08:13:10.471Z,177.70
2024-02-02T08:14:09.317Z,179.59
2024-02-02T08:15:09.437Z,181.89
2024-02-02T08:16:09.321Z,183.99
2024-02-02T08:17:09.346Z,183.41
2024-02-02T08:18:09.477Z,185.67
2024-02-02T08:19:09.404Z,184.88
2024-02-02T08:20:09.399Z,188.34
2024-02-02T08:21:09.427Z,191.22
2024-02-02T08:22:09.331Z,191.74
2024-02-02T08:23:09.329Z,193.17
2024-02-02T08:24:09.375Z,193.93
2024-02-02T08:25:09.337Z,197.85
2024-02-02T08:26:09.344Z,199.06
2024-02-02T08:27:09.358Z,200.00
2024-02-02T08:28:09.352Z,199.84
2024-02-02T08:29:09.354Z,199.83
2024-02-02T08:30:09.494Z,200.00
2024-02-02T08:31:09.347Z,199.77
2024-02-02T08:32:09.364Z,199.34
2024-02-02T08:33:09.555Z,198.72
2024-02-02T08:34:09.393Z,200.00
2024-02-02T08:35:09.366Z,199.18
2024-02-02T08:36:09.388Z,198.09
2024-02-02T08:37:09.354Z,198.32
2024-02-02T08:38:09.385Z,199.21
2024-02-02T08:39:09.377Z,199.45
2024-02-02T08:40:09.359Z,199.75
2024-02-02T08:41:09.356Z,198.62
2024-02-02T08:42:09.400Z,198.85
2024-02-02T08:43:09.363Z,198.67
2024-02-02T08:44:09.385Z,198.88
2024-02-02T08:45:09.380Z,198.26
2024-02-02T08:46:09.379Z,198.52
2024-02-02T08:47:09.396Z,198.36
2024-02-02T08:48:09.520Z,199.58
2024-02-02T08:49:09.492Z,199.50
2024-02-02T08:50:09.440Z,200.00
2024-02-02T08:51:09.418Z,198.85
2024-02-02T08:52:09.392Z,199.46
2024-02-02T08:53:09.408Z,198.06
2024-02-02T08:54:09.510Z,198.42
2024-02-02T08:55:09.507Z,199.21
2024-02-02T08:56:09.475Z,197.21
2024-02-02T08:57:09.543Z,198.38
2024-02-02T08:58:09.593Z,197.93
2024-02-02T08:59:09.599Z,199.00
2024-02-02T09:00:09.647Z,197.39
2024-02-02T09:01:09.617Z,197.01
2024-02-02T09:02:09.635Z,197.63
2024-02-02T09:03:09.772Z,197.35
2024-02-02T09:04:09.839Z,196.52
2024-02-02T09:05:09.708Z,197.99
2024-02-02T09:06:09.800Z,196.65
2024-02-02T09:07:09.806Z,197.41
2024-02-02T09:08:09.781Z,195.35
2024-02-02T09:09:09.900Z,195.22
2024-02-02T09:10:10.027Z,194.51
2024-02-02T09:11:09.891Z,193.57
2024-02-02T09:12:09.999Z,193.71
2024-02-02T09:13:09.939Z,193.55
2024-02-02T09:14:10.136Z,193.37
2024-02-02T09:15:10.024Z,192.02
2024-02-02T09:16:10.048Z,192.72
2024-02-02T09:17:10.048Z,191.98
2024-02-02T09:18:10.196Z,189.84
2024-02-02T09:19:10.190Z,189.76
2024-02-02T09:20:10.201Z,191.50
2024-02-02T09:21:10.266Z,189.89
2024-02-02T09:22:10.228Z,189.59
2024-02-02T09:23:10.274Z,180.59
2024-02-02T09:24:10.352Z,175.00
2024-02-02T09:25:10.453Z,168.37
2024-02-02T09:26:10.425Z,166.84
2024-02-02T09:27:10.500Z,155.91
2024-02-02T09:28:10.558Z,147.12
2024-02-02T09:29:10.750Z,140.41
2024-02-02T09:30:10.667Z,132.35
2024-02-02T09:31:10.614Z,125.30
2024-02-02T09:32:10.772Z,116.54
2024-02-02T09:33:10.866Z,109.11
2024-02-02T09:34:11.379Z,104.63
2024-02-02T09:35:10.859Z,96.92
2024-02-02T09:36:10.927Z,92.34
2024-02-02T09:37:10.884Z,86.16
2024-02-02T09:38:10.923Z,80.63
2024-02-02T09:39:11.148Z,76.33
2024-02-02T09:40:10.931Z,73.14
2024-02-02T09:41:10.976Z,68.00
2024-02-02T09:42:11.068Z,61.95
2024-02-02T09:43:11.298Z,57.44
2024-02-02T09:44:11.015Z,50.40
2024-02-02T09:45:11.125Z,50.16
2024-02-02T09:46:11.132Z,49.59
2024-02-02T09:47:11.225Z,51.41
2024-02-02T09:48:11.438Z,50.15
2024-02-02T09:49:11.446Z,52.39
2024-02-02T09:50:11.719Z,50.77
2024-02-02T09:51:11.371Z,51.37
2024-02-02T09:52:11.362Z,51.81
2024-02-02T09:53:11.362Z,51.04
2024-02-02T09:54:11.424Z,52.67
2024-02-02T09:55:11.395Z,52.21
2024-02-02T09:56:11.454Z,53.80
2024-02-02T09:57:11.478Z,52.87
2024-02-02T09:58:11.433Z,53.40
2024-02-02T09:59:11.420Z,55.15
2024-02-02T10:00:11.435Z,55.24
2024-02-02T10:01:11.489Z,54.51
2024-02-02T10:02:11.436Z,55.67
2024-02-02T10:03:11.473Z,55.19
2024-02-02T10:04:12.789Z,57.41
2024-02-02T10:05:12.119Z,58.01
2024-02-02T10:06:11.750Z,59.41
2024-02-02T10:07:11.533Z,57.57
2024-02-02T10:08:11.493Z,58.52
2024-02-02T10:09:11.569Z,60.66
2024-02-02T10:10:11.514Z,62.56
2024-02-02T10:11:11.544Z,65.18
2024-02-02T10:12:11.664Z,67.22
2024-02-02T10:13:11.677Z,69.37
2024-02-02T10:14:11.779Z,69.38
2024-02-02T10:15:11.874Z,71.44
2024-02-02T10:16:12.031Z,75.32
2024-02-02T10:17:11.965Z,74.78
2024-02-02T10:18:12.116Z,77.21
2024-02-02T10:19:12.200Z,80.43
2024-02-02T10:20:12.195Z,81.14
2024-02-02T10:21:12.293Z,81.96
2024-02-02T10:22:12.306Z,83.76
2024-02-02T10:23:12.404Z,82.19
2024-02-02T10:24:18.168Z,82.77
2024-02-02T10:25:13.413Z,82.81
2024-02-02T10:26:12.395Z,81.77
2024-02-02T10:27:12.422Z,80.87
2024-02-02T10:28:12.501Z,79.40
2024-02-02T10:29:12.451Z,76.90
2024-02-02T10:30:12.458Z,76.41
2024-02-02T10:31:12.404Z,77.12
2024-02-02T10:32:12.402Z,77.98
2024-02-02T10:33:12.956Z,77.49
2024-02-02T10:34:12.563Z,79.13
2024-02-02T10:35:12.415Z,78.33
2024-02-02T10:36:12.452Z,79.35
2024-02-02T10:37:12.451Z,82.40
2024-02-02T10:38:12.815Z,83.88
2024-02-02T10:39:13.791Z,85.41
2024-02-02T10:40:12.635Z,86.54
2024-02-02T10:41:12.708Z,88.55
2024-02-02T10:42:12.801Z,89.91
2024-02-02T10:43:12.837Z,91.20
2024-02-02T10:44:12.905Z,92.98
2024-02-02T10:45:12.974Z,93.51
2024-02-02T10:46:13.027Z,95.66
2024-02-02T10:47:13.086Z,95.24
2024-02-02T10:48:16.502Z,94.83
2024-02-02T10:49:13.283Z,95.83
2024-02-02T10:50:13.230Z,95.53
2024-02-02T10:51:13.160Z,95.03
2024-02-02T10:52:13.150Z,96.65
2024-02-02T10:53:13.139Z,96.80
2024-02-02T10:54:13.193Z,96.44
2024-02-02T10:55:13.154Z,95.78
2024-02-02T10:56:13.144Z,96.88
2024-02-02T10:57:13.188Z,96.38
2024-02-02T10:58:13.163Z,97.00
2024-02-02T10:59:13.193Z,96.64
2024-02-02T11:00:13.185Z,98.48
2024-02-02T11:01:13.334Z,97.49
2024-02-02T11:02:13.158Z,97.28
2024-02-02T11:03:13.256Z,95.13
2024-02-02T11:04:13.303Z,95.17
2024-02-02T11:05:13.163Z,95.72
2024-02-02T11:06:13.264Z,93.32
2024-02-02T11:07:13.256Z,90.20
2024-02-02T11:08:13.184Z,90.06
2024-02-02T11:09:13.184Z,86.98
2024-02-02T11:10:13.173Z,86.04
2024-02-02T11:11:13.163Z,82.64
2024-02-02T11:12:13.206Z,79.56
2024-02-02T11:13:13.172Z,78.56
2024-02-02T11:14:13.200Z,77.10
2024-02-02T11:15:13.226Z,74.50
2024-02-02T11:16:13.181Z,73.27
2024-02-02T11:17:13.198Z,71.81
2024-02-02T11:18:13.255Z,69.67
2024-02-02T11:19:13.250Z,69.40
2024-02-02T11:20:13.173Z,66.28
2024-02-02T11:21:13.227Z,66.02
2024-02-02T11:22:13.176Z,65.31
2024-02-02T11:23:13.206Z,61.80
2024-02-02T11:24:13.278Z,60.88
2024-02-02T11:25:13.212Z,61.11
2024-02-02T11:26:13.200Z,59.85
2024-02-02T11:27:13.231Z,60.33
2024-02-02T11:28:13.204Z,62.10
2024-02-02T11:29:13.388Z,60.13
2024-02-02T11:30:13.212Z,63.34
2024-02-02T11:31:13.219Z,65.65
2024-02-02T11:32:13.268Z,71.91
2024-02-02T11:33:13.500Z,77.08
2024-02-02T11:34:13.875Z,82.94
2024-02-02T11:35:13.428Z,90.51
2024-02-02T11:36:13.508Z,93.09
2024-02-02T11:37:13.564Z,93.66
2024-02-02T11:38:13.674Z,95.64
2024-02-02T11:39:13.724Z,94.46
2024-02-02T11:40:13.779Z,96.92
2024-02-02T11:41:13.838Z,98.78
2024-02-02T11:42:13.889Z,98.55
2024-02-02T11:43:14.344Z,99.13
2024-02-02T11:44:14.013Z,98.51
2024-02-02T11:45:14.102Z,98.75
2024-02-02T11:46:14.106Z,98.45
2024-02-02T11:47:14.177Z,96.60
2024-02-02T11:48:14.337Z,96.37
2024-02-02T11:49:14.449Z,95.02
2024-02-02T11:50:14.408Z,94.36
2024-02-02T11:51:14.486Z,92.72
2024-02-02T11:52:14.473Z,100.22
2024-02-02T11:53:14.601Z,99.25
2024-02-02T11:54:14.622Z,101.22
2024-02-02T11:55:14.684Z,98.67
2024-02-02T11:56:14.719Z,98.82
2024-02-02T11:57:14.829Z,99.25
2024-02-02T11:58:14.903Z,98.19
2024-02-02T11:59:14.928Z,97.38
2024-02-02T12:00:15.012Z,98.55
2024-02-02T12:01:15.086Z,96.44
2024-02-02T12:02:15.133Z,101.13
2024-02-02T12:03:15.250Z,101.12
2024-02-02T12:04:15.297Z,97.41
2024-02-02T12:05:15.389Z,95.21
2024-02-02T12:06:15.466Z,92.41
2024-02-02T12:07:15.530Z,89.84
2024-02-02T12:08:15.672Z,90.14
2024-02-02T12:09:15.897Z,88.65
2024-02-02T12:10:15.676Z,85.23
2024-02-02T12:11:17.289Z,83.23
2024-02-02T12:12:17.369Z,83.27
2024-02-02T12:13:15.759Z,81.56
2024-02-02T12:14:15.759Z,80.55
2024-02-02T12:15:16.078Z,77.86
2024-02-02T12:16:15.769Z,74.62
2024-02-02T12:17:15.765Z,76.01
2024-02-02T12:18:15.919Z,78.68
2024-02-02T12:19:15.997Z,83.28
2024-02-02T12:20:15.903Z,86.05
2024-02-02T12:21:15.867Z,92.18
2024-02-02T12:22:15.883Z,93.18
2024-02-02T12:23:16.361Z,94.63
2024-02-02T12:24:16.058Z,97.28
2024-02-02T12:25:16.122Z,96.51
2024-02-02T12:26:16.138Z,94.77
2024-02-02T12:27:16.244Z,94.93
2024-02-02T12:28:16.292Z,95.16
2024-02-02T12:29:16.296Z,91.66
2024-02-02T12:30:16.328Z,92.05
2024-02-02T12:31:16.303Z,91.31
2024-02-02T12:32:16.325Z,89.93
2024-02-02T12:33:16.475Z,89.37
2024-02-02T12:34:16.436Z,88.30
2024-02-02T12:35:17.916Z,87.36
2024-02-02T12:36:16.391Z,87.62
2024-02-02T12:37:16.385Z,87.32
2024-02-02T12:38:16.386Z,86.25
2024-02-02T12:39:16.409Z,86.20
2024-02-02T12:40:16.442Z,85.50
2024-02-02T12:41:16.398Z,85.24
2024-02-02T12:42:16.462Z,86.99
2024-02-02T12:43:16.435Z,84.80
2024-02-02T12:44:16.444Z,84.52
2024-02-02T12:45:16.584Z,84.77
2024-02-02T12:46:16.476Z,85.87
2024-02-02T12:47:16.506Z,85.05
2024-02-02T12:48:16.641Z,84.57